Time;durP1;ratioP1;P1;durP2;ratioP2;P2;SDS_P1;SDS_P2;PMS_P1;PMS_P2;Temp;Humidity;BMP_temperature;BMP_pressure;BME280_temperature;BME280_humidity;BME280_pressure;Samples;Min_cycle;Max_cycle;Signal;HPM_P1;HPM_P2
2022/01/14 00:00:04;;;;;;;13.73;6.55;;;;;;;-1.88;100.00;97183.50;5015038;28;20042;-78
2022/01/14 00:02:33;;;;;;;10.65;6.32;;;;;;;-1.86;100.00;97186.03;4997590;28;20058;-78
2022/01/14 00:04:59;;;;;;;11.95;6.25;;;;;;;-1.84;100.00;97194.50;4997363;28;20410;-78
2022/01/14 00:07:26;;;;;;;9.05;5.85;;;;;;;-1.72;100.00;97178.47;5014794;28;20463;-77
2022/01/14 00:09:51;;;;;;;8.50;5.13;;;;;;;-1.62;100.00;97164.97;5006466;28;20033;-77
2022/01/14 00:12:24;;;;;;;11.43;5.55;;;;;;;-1.58;100.00;97152.28;5014569;28;20080;-78
2022/01/14 00:14:59;;;;;;;7.97;4.75;;;;;;;-1.49;100.00;97132.81;5013514;28;20049;-77
2022/01/14 00:17:25;;;;;;;8.07;4.60;;;;;;;-1.45;100.00;97147.22;4998484;28;20467;-78
2022/01/14 00:19:51;;;;;;;5.45;3.80;;;;;;;-1.37;100.00;97135.41;4997560;28;20037;-78
2022/01/14 00:22:17;;;;;;;5.65;3.83;;;;;;;-1.36;100.00;97121.81;5013437;28;20053;-77
2022/01/14 00:35:21;;;;;;;5.13;3.13;;;;;;;-1.21;100.00;97095.56;5013252;28;20068;-77
2022/01/14 00:37:47;;;;;;;5.85;3.22;;;;;;;-1.18;100.00;97121.84;5014333;28;20042;-78
2022/01/14 00:40:13;;;;;;;4.75;2.90;;;;;;;-1.07;100.00;97112.53;5013067;28;20404;-81
2022/01/14 00:42:39;;;;;;;5.28;2.63;;;;;;;-1.08;100.00;97087.94;5012969;28;20069;-79
2022/01/14 00:45:07;;;;;;;4.00;2.70;;;;;;;-1.21;100.00;97116.75;5013235;28;20457;-80
2022/01/14 00:47:37;;;;;;;4.05;2.30;;;;;;;-1.15;100.00;97129.47;5013478;28;20061;-77
2022/01/14 00:50:07;;;;;;;5.28;2.63;;;;;;;-1.14;100.00;97131.19;4997194;28;20409;-77
2022/01/14 00:52:34;;;;;;;5.15;2.40;;;;;;;-1.08;100.00;97127.81;5013268;28;20136;-77
2022/01/14 00:55:00;;;;;;;5.30;3.03;;;;;;;-1.04;100.00;97125.25;5012930;28;20588;-77
2022/01/14 00:59:13;;;;;;;6.57;3.20;;;;;;;-1.10;100.00;97099.81;5012929;28;20034;-77
2022/01/14 01:00:11;;;;;;;4.95;2.80;;;;;;;-1.10;100.00;97097.28;5012822;28;20046;-77
2022/01/14 01:02:37;;;;;;;5.57;3.10;;;;;;;-1.07;100.00;97074.38;5013813;28;20064;-77
2022/01/14 01:05:03;;;;;;;5.75;3.00;;;;;;;-0.95;100.00;97063.34;5012938;28;20061;-77
2022/01/14 01:07:28;;;;;;;;;;;;;;;-0.85;100.00;97054.84;5029708;28;20037;-76
2022/01/14 01:09:54;;;;;;;3.67;2.10;;;;;;;-0.92;100.00;97062.50;5045782;28;19968;-79
2022/01/14 01:13:23;;;;;;;3.90;2.47;;;;;;;-0.87;100.00;97058.25;4979618;28;20037;-78
2022/01/14 01:15:17;;;;;;;4.03;2.00;;;;;;;-0.88;100.00;97038.75;5012045;28;20385;-79
2022/01/14 01:17:43;;;;;;;5.00;2.10;;;;;;;-0.84;100.00;97028.53;5014113;28;20430;-78
2022/01/14 01:20:13;;;;;;;2.90;2.00;;;;;;;-0.81;100.00;97046.38;5012506;28;20460;-78
2022/01/14 01:22:39;;;;;;;4.43;1.90;;;;;;;-0.92;100.00;97017.53;5012451;28;20038;-76
2022/01/14 01:25:14;;;;;;;4.00;1.95;;;;;;;-0.93;100.00;97038.75;5012457;28;20060;-78
2022/01/14 01:27:43;;;;;;;3.25;1.83;;;;;;;-0.94;100.00;97019.25;5013736;28;20455;-79
2022/01/14 01:30:37;;;;;;;7.05;3.95;;;;;;;-0.87;100.00;97017.53;5029350;28;20041;-77
2022/01/14 01:33:03;;;;;;;2.70;1.85;;;;;;;-0.78;100.00;97025.13;4999590;28;20841;-77
2022/01/14 01:35:29;;;;;;;3.33;1.88;;;;;;;-0.82;100.00;97023.47;5029093;28;20524;-77
2022/01/14 01:37:55;;;;;;;2.65;1.70;;;;;;;-0.81;100.00;97026.00;5012193;28;20042;-76
2022/01/14 01:40:22;;;;;;;5.07;2.20;;;;;;;-0.83;100.00;97012.41;4995877;28;20481;-77
2022/01/14 01:42:48;;;;;;;3.83;1.77;;;;;;;-0.81;100.00;97020.06;4995826;28;20049;-77
2022/01/14 01:45:19;;;;;;;3.85;1.80;;;;;;;-0.78;100.00;97005.66;5012370;28;20034;-78
2022/01/14 01:47:49;;;;;;;3.60;2.00;;;;;;;-0.78;100.00;96995.47;4981503;28;20509;-77
2022/01/14 01:50:15;;;;;;;4.57;2.03;;;;;;;-0.77;100.00;96981.03;5012077;28;20049;-80
2022/01/14 01:52:41;;;;;;;3.90;2.22;;;;;;;-0.74;100.00;96983.56;5012326;28;20038;-78
2022/01/14 01:55:07;;;;;;;5.38;2.38;;;;;;;-0.77;100.00;96979.34;5013785;28;20057;-79
2022/01/14 01:57:33;;;;;;;6.05;2.63;;;;;;;-0.80;100.00;96974.25;5013134;28;20037;-78
2022/01/14 01:59:58;;;;;;;5.75;2.50;;;;;;;-0.77;100.00;96973.41;5011901;28;20033;-78
2022/01/14 02:02:25;;;;;;;3.85;2.63;;;;;;;-0.70;100.00;96976.78;5012790;28;20049;-78
2022/01/14 02:04:50;;;;;;;3.90;1.63;;;;;;;-0.73;100.00;96982.72;4995594;28;20038;-76
2022/01/14 02:07:16;;;;;;;5.65;2.55;;;;;;;-0.78;100.00;96964.06;5013150;28;20555;-79
2022/01/14 02:09:42;;;;;;;4.38;2.60;;;;;;;-0.69;100.00;96958.09;5011864;28;20046;-77
2022/01/14 02:12:10;;;;;;;4.88;3.03;;;;;;;-0.65;100.00;96950.44;4995618;28;20061;-77
2022/01/14 02:19:42;;;;;;;6.22;3.25;;;;;;;-0.63;100.00;96958.94;5011679;28;20069;-77
2022/01/14 02:22:14;;;;;;;6.07;3.22;;;;;;;-0.61;100.00;96936.84;4996975;28;20038;-77
2022/01/14 02:27:09;;;;;;;3.88;2.28;;;;;;;-0.58;100.00;96905.44;5015612;28;20037;-79
2022/01/14 02:29:35;;;;;;;5.57;3.05;;;;;;;-0.55;100.00;96910.50;4999017;28;20042;-77
2022/01/14 02:32:01;;;;;;;6.82;2.35;;;;;;;-0.58;100.00;96903.75;5015691;28;20033;-77
2022/01/14 02:34:27;;;;;;;4.72;2.72;;;;;;;-0.61;100.00;96888.47;5016940;28;20378;-77
2022/01/14 02:36:52;;;;;;;6.75;3.05;;;;;;;-0.59;100.00;96884.25;5016573;28;20042;-76
2022/01/14 02:39:18;;;;;;;4.60;2.92;;;;;;;-0.62;100.00;96870.66;5015432;28;20107;-78
2022/01/14 02:41:45;;;;;;;4.15;2.80;;;;;;;-0.56;100.00;96874.03;5015353;28;20033;-78
2022/01/14 02:44:23;;;;;;;3.85;2.92;;;;;;;-0.51;100.00;96859.56;5015286;28;20052;-79
2022/01/14 02:46:53;;;;;;;4.20;2.95;;;;;;;-0.48;100.00;96840.88;4999854;28;20497;-76
2022/01/14 02:49:20;;;;;;;6.90;3.30;;;;;;;-0.46;100.00;96843.41;5015590;28;20034;-78
2022/01/14 02:51:46;;;;;;;4.93;3.00;;;;;;;-0.45;100.00;96824.75;5015423;28;20041;-77
2022/01/14 02:54:20;;;;;;;4.80;2.83;;;;;;;-0.46;100.00;96843.41;5015756;28;20042;-76
2022/01/14 02:56:47;;;;;;;5.15;2.80;;;;;;;-0.60;100.00;96815.47;5015393;28;20045;-76
2022/01/14 02:59:13;;;;;;;4.82;3.00;;;;;;;-0.41;100.00;96839.13;4999207;28;20034;-79
2022/01/14 03:01:38;;;;;;;5.30;2.78;;;;;;;-0.43;100.00;96838.31;4998506;28;20069;-78
2022/01/14 03:04:04;;;;;;;5.60;2.08;;;;;;;-0.46;100.00;96823.88;5014896;28;20050;-77
2022/01/14 03:06:30;;;;;;;5.72;2.97;;;;;;;-0.47;100.00;96824.75;5014875;28;20574;-77
2022/01/14 03:08:59;;;;;;;5.03;2.55;;;;;;;-0.47;100.00;96822.19;5014800;28;20041;-78
2022/01/14 03:11:34;;;;;;;5.10;2.10;;;;;;;-0.41;100.00;96800.94;4998656;28;20098;-77
2022/01/14 03:14:00;;;;;;;7.80;2.60;;;;;;;-0.36;100.00;96814.50;5015125;28;20165;-79
2022/01/14 03:16:26;;;;;;;3.55;2.30;;;;;;;-0.39;100.00;96807.72;4998399;28;20485;-79
2022/01/14 03:18:54;;;;;;;6.70;2.78;;;;;;;-0.34;100.00;96795.78;4998357;28;20041;-79
2022/01/14 03:21:28;;;;;;;3.88;2.55;;;;;;;-0.30;100.00;96786.44;5048058;28;20555;-79
2022/01/14 03:24:14;;;;;;;4.28;2.42;;;;;;;-0.35;100.00;96781.38;5015654;28;20046;-76
2022/01/14 03:26:40;;;;;;;4.15;2.40;;;;;;;-0.27;100.00;96771.16;5034395;28;20420;-76
2022/01/14 03:29:06;;;;;;;3.90;2.42;;;;;;;-0.28;100.00;96762.63;5016217;28;20042;-77
2022/01/14 03:31:31;;;;;;;4.38;2.50;;;;;;;-0.32;100.00;96744.84;5012817;28;20053;-78
2022/01/14 03:33:57;;;;;;;4.40;2.60;;;;;;;-0.26;100.00;96730.38;5013700;28;20037;-79
2022/01/14 03:36:22;;;;;;;4.30;2.67;;;;;;;-0.18;100.00;96712.47;5028469;28;20500;-79
2022/01/14 03:38:48;;;;;;;4.30;2.83;;;;;;;-0.18;100.00;96719.25;4998745;28;20136;-78
2022/01/14 03:41:14;;;;;;;3.83;2.60;;;;;;;-0.17;100.00;96719.25;4998540;28;20042;-77
2022/01/14 03:43:41;;;;;;;3.72;2.08;;;;;;;-0.19;100.00;96720.94;4991007;28;20042;-79
2022/01/14 03:46:07;;;;;;;4.80;2.50;;;;;;;-0.18;100.00;96702.28;5018697;28;20045;-79
2022/01/14 03:48:32;;;;;;;3.83;2.25;;;;;;;-0.23;100.00;96701.44;4987928;28;20025;-78
2022/01/14 03:50:58;;;;;;;5.10;2.60;;;;;;;-0.20;100.00;96701.44;5005189;28;20046;-80
2022/01/14 03:53:24;;;;;;;4.03;2.45;;;;;;;-0.27;100.00;96690.47;5016479;28;20572;-77
2022/01/14 03:55:49;;;;;;;5.35;3.05;;;;;;;-0.19;100.00;96712.47;4981678;28;20050;-77
2022/01/14 03:58:15;;;;;;;4.78;2.40;;;;;;;-0.17;100.00;96701.41;5015535;28;20029;-80
2022/01/14 04:00:41;;;;;;;4.97;2.47;;;;;;;-0.19;100.00;96687.84;5030234;28;20045;-77
2022/01/14 04:03:07;;;;;;;5.72;2.88;;;;;;;-0.21;100.00;96687.03;5014812;28;20062;-78
2022/01/14 04:05:33;;;;;;;4.28;2.60;;;;;;;-0.16;100.00;96685.28;4993579;28;20406;-79
2022/01/14 04:07:58;;;;;;;3.47;2.55;;;;;;;-0.17;100.00;96668.31;5017288;28;20038;-78
2022/01/14 04:10:26;;;;;;;3.65;2.50;;;;;;;-0.22;100.00;96672.59;5013654;28;20045;-79
2022/01/14 04:13:04;;;;;;;7.32;2.78;;;;;;;-0.20;100.00;96658.13;5029878;28;20076;-79
2022/01/14 04:15:36;;;;;;;5.10;3.10;;;;;;;-0.18;100.00;96663.19;5013337;28;20472;-77
2022/01/14 04:18:10;;;;;;;5.38;2.50;;;;;;;-0.18;100.00;96663.19;5030659;28;20044;-78
2022/01/14 04:20:36;;;;;;;4.35;2.45;;;;;;;-0.13;100.00;96681.84;5013404;28;20417;-77
2022/01/14 04:23:02;;;;;;;4.25;2.83;;;;;;;-0.12;100.00;96658.06;5013110;28;20093;-80
2022/01/14 04:25:28;;;;;;;;;;;;;;;-0.10;100.00;96658.88;5015463;28;20053;-80
2022/01/14 04:27:54;;;;;;;4.70;2.70;;;;;;;-0.12;100.00;96646.16;5029727;28;20331;-78
2022/01/14 04:30:20;;;;;;;6.30;2.97;;;;;;;-0.14;100.00;96652.97;4997217;28;20563;-80
2022/01/14 04:32:46;;;;;;;5.10;2.88;;;;;;;-0.15;100.00;96653.00;4996993;28;20030;-79
2022/01/14 04:35:11;;;;;;;4.57;2.67;;;;;;;-0.15;100.00;96653.84;5013882;28;20116;-79
2022/01/14 04:37:37;;;;;;;4.28;3.05;;;;;;;-0.13;100.00;96644.47;5013406;28;20033;-79
2022/01/14 04:40:04;;;;;;;4.03;2.47;;;;;;;-0.15;100.00;96638.53;5012953;28;20038;-79
2022/01/14 04:42:30;;;;;;;5.03;2.72;;;;;;;-0.15;100.00;96627.50;5013152;28;20413;-79
2022/01/14 04:44:56;;;;;;;3.80;2.40;;;;;;;-0.11;100.00;96650.41;5013746;28;20117;-79
2022/01/14 04:47:44;;;;;;;6.70;2.80;;;;;;;-0.12;100.00;96627.50;5012640;28;20029;-79
2022/01/14 04:50:18;;;;;;;5.45;2.40;;;;;;;-0.15;100.00;96623.25;5014358;28;20092;-79
2022/01/14 04:52:45;;;;;;;4.43;2.42;;;;;;;-0.17;100.00;96616.50;5013239;28;20515;-79
2022/01/14 04:55:11;;;;;;;4.28;2.38;;;;;;;-0.19;100.00;96611.41;5012773;28;20037;-80
2022/01/14 04:57:37;;;;;;;3.70;2.28;;;;;;;-0.17;100.00;96611.41;4997033;28;20432;-79
2022/01/14 05:00:05;;;;;;;4.57;2.08;;;;;;;-0.20;100.00;96602.09;5013008;28;20501;-80
2022/01/14 05:02:31;;;;;;;4.13;2.10;;;;;;;-0.20;100.00;96606.34;5012273;28;20394;-80
2022/01/14 05:04:58;;;;;;;4.75;2.05;;;;;;;-0.21;100.00;96586.81;5012985;28;20049;-79
2022/01/14 05:07:26;;;;;;;3.42;1.92;;;;;;;-0.23;100.00;96575.78;5012568;28;20411;-79
2022/01/14 05:10:15;;;;;;;3.88;1.70;;;;;;;-0.24;100.00;96557.13;5012499;28;20030;-79
2022/01/14 05:12:40;;;;;;;3.05;1.70;;;;;;;-0.25;100.00;96545.25;4999777;28;20048;-78
2022/01/14 05:15:07;;;;;;;2.22;1.50;;;;;;;-0.26;100.00;96529.13;5013748;28;20034;-80
2022/01/14 05:17:34;;;;;;;3.17;1.70;;;;;;;-0.25;100.00;96527.44;5012568;28;20107;-79
2022/01/14 05:20:00;;;;;;;2.63;1.67;;;;;;;-0.27;100.00;96514.72;5012569;28;20090;-79
2022/01/14 05:22:26;;;;;;;2.95;1.63;;;;;;;-0.26;100.00;96506.22;5012595;28;20061;-78
2022/01/14 05:24:51;;;;;;;2.42;1.48;;;;;;;-0.27;100.00;96506.22;4996897;28;20377;-79
2022/01/14 05:27:17;;;;;;;2.40;1.20;;;;;;;-0.29;100.00;96505.41;4996493;28;20045;-80
2022/01/14 05:29:43;;;;;;;2.63;1.20;;;;;;;-0.30;100.00;96502.00;5013159;28;20052;-80
2022/01/14 05:32:12;;;;;;;2.47;1.48;;;;;;;-0.30;100.00;96508.81;5012519;28;20048;-78
2022/01/14 05:34:39;;;;;;;2.95;1.20;;;;;;;-0.32;100.00;96479.94;5014186;28;20045;-78
2022/01/14 05:37:05;;;;;;;3.58;1.10;;;;;;;-0.33;100.00;96489.28;4996144;28;20560;-80
2022/01/14 05:39:31;;;;;;;2.00;1.20;;;;;;;-0.32;100.00;96490.13;5012629;28;20037;-79
2022/01/14 05:41:57;;;;;;;1.58;1.17;;;;;;;-0.34;100.00;96485.06;5013360;28;20069;-80
2022/01/14 05:44:24;;;;;;;2.63;1.30;;;;;;;-0.34;100.00;96464.69;5012852;28;20473;-78
2022/01/14 05:46:53;;;;;;;2.42;1.20;;;;;;;-0.34;100.00;96446.03;5013914;28;20045;-79
2022/01/14 05:49:19;;;;;;;1.80;1.15;;;;;;;-0.33;100.00;96442.63;4995876;28;20079;-79
2022/01/14 05:51:45;;;;;;;;;;;;;;;-0.35;100.00;96435.00;4996024;28;20128;-79
2022/01/14 05:54:10;;;;;;;2.88;1.00;;;;;;;-0.35;100.00;96429.06;5045302;28;19971;-79
2022/01/14 05:56:36;;;;;;;1.30;1.00;;;;;;;-0.36;100.00;96420.59;5013246;28;20513;-79
2022/01/14 05:59:02;;;;;;;2.38;1.00;;;;;;;-0.38;100.00;96416.38;5013114;28;20038;-78
2022/01/14 06:01:30;;;;;;;;;;;;;;;-0.36;100.00;96400.22;4996350;28;20061;-80
2022/01/14 06:03:57;;;;;;;3.65;0.90;;;;;;;-0.36;100.00;96392.59;5045083;28;19928;-79
2022/01/14 06:06:22;;;;;;;1.10;0.80;;;;;;;-0.34;100.00;96392.56;5011871;28;20128;-79
2022/01/14 06:08:49;;;;;;;1.70;0.90;;;;;;;-0.39;100.00;96372.25;5013319;28;20478;-80
2022/01/14 06:11:15;;;;;;;1.92;1.10;;;;;;;-0.38;100.00;96363.72;5013869;28;20046;-79
2022/01/14 06:13:40;;;;;;;;;;;;;;;-0.36;100.00;96349.28;5012888;28;20026;-80
2022/01/14 06:16:06;;;;;;;2.63;0.90;;;;;;;-0.36;100.00;96351.00;5044896;28;19928;-79
2022/01/14 06:18:32;;;;;;;0.93;0.80;;;;;;;-0.35;100.00;96337.41;5013224;28;20030;-79
2022/01/14 06:20:57;;;;;;;3.22;0.90;;;;;;;-0.37;100.00;96332.31;4995355;28;20131;-81
2022/01/14 06:23:23;;;;;;;2.97;0.77;;;;;;;-0.34;100.00;96318.69;5013034;28;20088;-79
2022/01/14 06:25:49;;;;;;;1.17;0.70;;;;;;;-0.35;100.00;96312.75;5011625;28;20068;-79
2022/01/14 06:28:14;;;;;;;5.10;0.90;;;;;;;-0.32;100.00;96306.75;4995356;28;20150;-79
2022/01/14 06:30:40;;;;;;;3.08;0.77;;;;;;;-0.33;100.00;96297.44;5011862;28;20050;-79
2022/01/14 06:33:06;;;;;;;1.23;0.88;;;;;;;-0.32;100.00;96286.41;5011988;28;20046;-79
2022/01/14 06:35:31;;;;;;;2.42;0.68;;;;;;;-0.31;100.00;96283.00;5012787;28;20045;-79
2022/01/14 06:37:57;;;;;;;0.77;0.63;;;;;;;-0.30;100.00;96277.03;5013096;28;20029;-79
2022/01/14 06:40:23;;;;;;;0.98;0.50;;;;;;;-0.29;100.00;96271.91;4995314;28;20056;-78
2022/01/14 06:42:50;;;;;;;1.05;0.60;;;;;;;-0.27;100.00;96254.09;5028742;28;20044;-79
2022/01/14 06:45:16;;;;;;;4.95;3.53;;;;;;;-0.30;100.00;96246.47;5011515;28;20092;-79
2022/01/14 06:47:41;;;;;;;1.00;0.60;;;;;;;-0.29;100.00;96248.16;4979222;28;20038;-80
2022/01/14 06:50:07;;;;;;;0.98;0.70;;;;;;;-0.28;100.00;96232.00;5013156;28;20052;-80
2022/01/14 06:52:33;;;;;;;1.27;0.80;;;;;;;-0.28;100.00;96232.00;5013376;28;20042;-80
2022/01/14 06:54:59;;;;;;;1.52;0.60;;;;;;;-0.30;100.00;96215.91;5012924;28;20069;-79
2022/01/14 06:57:24;;;;;;;1.08;0.70;;;;;;;-0.30;100.00;96219.31;5012643;28;20401;-78
2022/01/14 06:59:50;;;;;;;1.33;0.80;;;;;;;-0.30;100.00;96219.31;5013256;28;20073;-79
2022/01/14 07:02:16;;;;;;;1.70;1.00;;;;;;;-0.30;100.00;96218.47;4995054;28;20065;-79
2022/01/14 07:04:42;;;;;;;1.10;0.80;;;;;;;-0.31;100.00;96207.44;5011938;28;20041;-80
2022/01/14 07:07:07;;;;;;;2.63;1.00;;;;;;;-0.31;100.00;96207.44;5011851;28;20033;-79
2022/01/14 07:09:35;;;;;;;1.27;0.80;;;;;;;-0.32;100.00;96205.75;5013202;28;20049;-79
2022/01/14 07:12:03;;;;;;;2.10;0.70;;;;;;;-0.31;100.00;96188.78;5014978;28;20493;-80
2022/01/14 07:14:29;;;;;;;2.10;1.02;;;;;;;-0.34;100.00;96171.81;5016903;28;20096;-80
2022/01/14 07:16:56;;;;;;;1.05;0.77;;;;;;;-0.38;100.00;96164.25;5015294;28;20085;-78
2022/01/14 07:19:22;;;;;;;0.88;0.80;;;;;;;-0.36;100.00;96168.47;5031943;28;20489;-79
2022/01/14 07:21:48;;;;;;;2.08;0.93;;;;;;;-0.38;100.00;96143.91;5014903;28;20038;-78
2022/01/14 07:24:14;;;;;;;1.35;0.82;;;;;;;-0.39;100.00;96145.59;4998490;28;20100;-79
2022/01/14 07:26:40;;;;;;;2.47;0.80;;;;;;;-0.41;100.00;96144.81;5015132;28;20092;-80
2022/01/14 07:29:06;;;;;;;1.17;0.77;;;;;;;-0.46;100.00;96138.09;4998476;28;20091;-79
2022/01/14 07:31:32;;;;;;;2.60;1.00;;;;;;;-0.48;100.00;96127.94;4982328;28;20481;-79
2022/01/14 07:33:58;;;;;;;3.30;1.30;;;;;;;-0.51;100.00;96136.47;5015670;28;20052;-80
2022/01/14 07:36:23;;;;;;;3.50;1.25;;;;;;;-0.52;100.00;96111.03;4998500;28;20066;-79
2022/01/14 07:38:49;;;;;;;1.70;1.10;;;;;;;-0.58;100.00;96101.81;5015620;28;20038;-79
2022/01/14 07:41:15;;;;;;;3.83;1.40;;;;;;;-0.59;100.00;96099.28;5031008;28;20038;-79
2022/01/14 07:43:46;;;;;;;2.38;1.20;;;;;;;-0.60;100.00;96089.97;5015027;28;20030;-79
2022/01/14 07:46:11;;;;;;;2.17;1.40;;;;;;;-0.65;100.00;96071.38;4998760;28;20045;-79
2022/01/14 07:48:37;;;;;;;3.08;1.30;;;;;;;-0.73;100.00;96058.81;5014230;28;20025;-78
2022/01/14 07:51:03;;;;;;;3.65;1.52;;;;;;;-0.66;100.00;96062.91;5014851;28;20049;-79
2022/01/14 07:53:28;;;;;;;2.58;1.58;;;;;;;-0.68;100.00;96054.47;5014371;28;20033;-79
2022/01/14 07:55:54;;;;;;;2.65;1.33;;;;;;;-0.73;100.00;96046.09;5015402;28;20069;-80
2022/01/14 07:58:21;;;;;;;3.13;1.60;;;;;;;-0.73;100.00;96042.69;5014113;28;20440;-79
2022/01/14 08:00:47;;;;;;;;;;;;;;;-0.72;100.00;96039.28;5016138;28;20096;-79
2022/01/14 08:03:12;;;;;;;4.88;1.80;;;;;;;-0.73;100.00;96042.69;5046653;28;19922;-79
2022/01/14 08:05:38;;;;;;;4.13;1.85;;;;;;;-0.74;100.00;96021.47;4997797;28;20477;-81
2022/01/14 08:08:07;;;;;;;2.92;1.50;;;;;;;-0.74;100.00;96013.00;5013993;28;20099;-79
2022/01/14 08:10:34;;;;;;;5.32;2.78;;;;;;;-0.74;100.00;96007.94;4998275;28;20053;-82
2022/01/14 08:13:00;;;;;;;3.35;2.05;;;;;;;-0.73;100.00;95996.88;4997950;28;20090;-78
2022/01/14 08:15:26;;;;;;;2.58;1.60;;;;;;;-0.71;100.00;95982.44;5014294;28;20049;-79
2022/01/14 08:17:53;;;;;;;6.40;1.98;;;;;;;-0.73;100.00;95986.69;5014159;28;20064;-79
2022/01/14 08:20:19;;;;;;;5.80;2.00;;;;;;;-0.75;100.00;95975.72;4981749;28;20430;-80
2022/01/14 08:22:45;;;;;;;2.25;1.30;;;;;;;-0.72;100.00;95976.50;4997466;28;20095;-78
2022/01/14 08:25:11;;;;;;;3.42;1.70;;;;;;;-0.70;100.00;95973.91;5015378;28;20034;-80
2022/01/14 08:27:36;;;;;;;;;;;;;;;-0.72;100.00;95961.22;4997895;28;20083;-79
2022/01/14 08:30:03;;;;;;;3.65;2.13;;;;;;;-0.73;100.00;95951.94;5029989;28;19965;-80
2022/01/14 08:32:29;;;;;;;2.70;1.85;;;;;;;-0.73;100.00;95940.88;5015329;28;20481;-78
2022/01/14 08:34:55;;;;;;;4.72;1.73;;;;;;;-0.73;100.00;95938.34;5014745;28;20053;-79
2022/01/14 08:37:20;;;;;;;3.80;2.00;;;;;;;-0.70;100.00;95931.50;5013672;28;20046;-79
2022/01/14 08:39:46;;;;;;;4.50;2.30;;;;;;;-0.69;100.00;95917.06;5013468;28;20061;-78
2022/01/14 08:42:12;;;;;;;4.22;2.25;;;;;;;-0.71;100.00;95906.91;5014683;28;20092;-80
2022/01/14 08:44:38;;;;;;;5.38;1.95;;;;;;;-0.69;100.00;95897.53;5015113;28;20496;-79
2022/01/14 08:47:08;;;;;;;5.68;2.53;;;;;;;-0.70;100.00;95885.69;5013318;28;20034;-79
2022/01/14 08:49:34;;;;;;;3.55;2.03;;;;;;;-0.70;100.00;95872.97;5013444;28;20077;-84
2022/01/14 08:51:59;;;;;;;2.35;1.40;;;;;;;-0.65;100.00;95865.22;5013962;28;20381;-78
2022/01/14 08:54:25;;;;;;;4.03;2.50;;;;;;;-0.67;100.00;95859.34;5014491;28;20045;-79
2022/01/14 08:56:50;;;;;;;3.63;1.90;;;;;;;-0.69;100.00;95861.91;5012747;28;20033;-79
2022/01/14 08:59:17;;;;;;;6.35;2.40;;;;;;;-0.69;100.00;95854.25;5013378;28;20038;-79
2022/01/14 09:01:42;;;;;;;6.90;2.67;;;;;;;-0.71;100.00;95835.66;5012673;28;20139;-79
2022/01/14 09:04:08;;;;;;;2.88;1.92;;;;;;;-0.71;100.00;95828.03;5013109;28;20501;-79
2022/01/14 09:06:34;;;;;;;3.58;1.60;;;;;;;-0.65;100.00;95825.34;4996459;28;20042;-79
2022/01/14 09:09:00;;;;;;;3.78;1.63;;;;;;;-0.63;100.00;95818.53;5013735;28;20046;-78
2022/01/14 09:11:25;;;;;;;3.85;1.85;;;;;;;-0.66;100.00;95810.94;5012926;28;20041;-79
2022/01/14 09:13:51;;;;;;;3.55;1.92;;;;;;;-0.66;100.00;95798.22;5014319;28;20037;-80
2022/01/14 09:16:20;;;;;;;2.17;1.42;;;;;;;-0.66;100.00;95800.75;5012906;28;20073;-78
2022/01/14 09:18:47;;;;;;;3.50;1.80;;;;;;;-0.63;100.00;95785.44;5012844;28;20132;-79
2022/01/14 09:21:14;;;;;;;3.08;1.50;;;;;;;-0.58;100.00;95770.91;5013837;28;20037;-82
2022/01/14 09:23:40;;;;;;;4.57;1.20;;;;;;;-0.59;100.00;95766.69;4996738;28;20091;-79
2022/01/14 09:26:06;;;;;;;2.28;1.17;;;;;;;-0.61;100.00;95750.59;5015034;28;20040;-79
2022/01/14 09:28:33;;;;;;;1.98;1.00;;;;;;;-0.56;100.00;95743.69;4996560;28;20046;-79
2022/01/14 09:30:58;;;;;;;4.75;1.20;;;;;;;-0.55;100.00;95741.97;5013015;28;20034;-80
2022/01/14 09:33:24;;;;;;;3.38;1.23;;;;;;;-0.55;100.00;95737.75;5012637;28;20038;-80
2022/01/14 09:35:50;;;;;;;1.65;1.05;;;;;;;-0.55;100.00;95735.19;5013612;28;20128;-79
2022/01/14 09:38:16;;;;;;;2.17;1.08;;;;;;;-0.53;100.00;95715.63;4996100;28;20497;-81
2022/01/14 09:40:43;;;;;;;2.75;1.00;;;;;;;-0.49;100.00;95723.19;5029176;28;20119;-81
2022/01/14 09:43:12;;;;;;;1.77;1.10;;;;;;;-0.49;100.00;95713.84;4995941;28;20037;-79
2022/01/14 09:45:38;;;;;;;3.15;1.17;;;;;;;-0.51;100.00;95706.22;4979985;28;20046;-79
2022/01/14 09:48:04;;;;;;;2.28;1.02;;;;;;;-0.52;100.00;95691.81;4996377;28;20040;-78
2022/01/14 09:50:29;;;;;;;5.50;1.15;;;;;;;-0.42;100.00;95699.25;4996254;28;20042;-80
2022/01/14 09:52:55;;;;;;;4.05;1.10;;;;;;;-0.45;100.00;95689.97;5012783;28;20080;-79
2022/01/14 09:55:22;;;;;;;2.72;1.48;;;;;;;-0.39;100.00;95694.91;4996036;28;20038;-80
2022/01/14 09:57:48;;;;;;;3.72;1.50;;;;;;;-0.36;100.00;95688.94;4996132;28;20053;-80
2022/01/14 10:00:14;;;;;;;2.30;1.20;;;;;;;-0.42;100.00;95671.22;5012527;28;20121;-79
2022/01/14 10:02:42;;;;;;;3.72;1.60;;;;;;;-0.35;100.00;95670.22;5012034;28;20108;-80
2022/01/14 10:05:08;;;;;;;2.85;1.58;;;;;;;-0.39;100.00;95661.81;4979442;28;20048;-84
2022/01/14 10:07:34;;;;;;;3.25;1.50;;;;;;;-0.34;100.00;95661.69;5012272;28;20121;-80
2022/01/14 10:10:02;;;;;;;4.72;1.88;;;;;;;-0.41;100.00;95645.75;5012255;28;20485;-79
2022/01/14 10:12:33;;;;;;;3.97;2.22;;;;;;;-0.37;100.00;95644.78;4979784;28;20050;-80
2022/01/14 10:15:00;;;;;;;2.63;1.50;;;;;;;-0.30;100.00;95632.75;4996041;28;20041;-82
2022/01/14 10:17:46;;;;;;;7.38;4.78;;;;;;;-0.33;100.00;95627.72;5012486;28;20091;-79
2022/01/14 10:20:13;;;;;;;11.90;7.90;;;;;;;-0.34;100.00;95620.97;4998389;28;20054;-81
2022/01/14 10:22:43;;;;;;;7.50;4.28;;;;;;;-0.32;100.00;95617.50;4979300;28;20029;-80
2022/01/14 10:25:10;;;;;;;8.27;4.10;;;;;;;-0.32;100.00;95611.56;4995907;28;20069;-78
2022/01/14 10:27:38;;;;;;;5.30;3.10;;;;;;;-0.31;100.00;95608.16;5012853;28;20030;-80
2022/01/14 10:30:15;;;;;;;4.07;2.30;;;;;;;-0.27;100.00;95587.66;5011709;28;20069;-80
2022/01/14 10:32:41;;;;;;;4.65;1.98;;;;;;;-0.29;100.00;95566.47;5013066;28;20042;-81
2022/01/14 10:35:18;;;;;;;6.70;2.33;;;;;;;-0.36;100.00;95566.72;5011535;28;20120;-81
2022/01/14 10:37:43;;;;;;;2.83;1.80;;;;;;;-0.37;100.00;95567.56;4995727;28;20038;-80
2022/01/14 10:40:29;;;;;;;3.83;2.28;;;;;;;-0.37;100.00;95563.31;5012028;28;20044;-79
2022/01/14 10:43:08;;;;;;;3.42;1.50;;;;;;;-0.28;100.00;95550.31;4995533;28;20050;-80
2022/01/14 10:45:34;;;;;;;4.63;2.70;;;;;;;-0.27;100.00;95556.28;4998442;28;20033;-80
2022/01/14 10:48:04;;;;;;;6.53;2.90;;;;;;;-0.32;100.00;95553.84;5016712;28;20441;-79
2022/01/14 10:50:45;;;;;;;4.78;2.28;;;;;;;-0.26;100.00;95552.84;5032290;28;20050;-79
2022/01/14 10:53:16;;;;;;;4.15;2.47;;;;;;;-0.37;100.00;95544.66;5016540;28;20037;-79
2022/01/14 10:55:47;;;;;;;3.80;2.38;;;;;;;-0.34;100.00;95539.47;4999689;28;20117;-82
2022/01/14 10:58:17;;;;;;;3.33;2.08;;;;;;;-0.36;100.00;95533.63;5015198;28;20044;-80
2022/01/14 11:00:45;;;;;;;3.25;2.10;;;;;;;-0.30;100.00;95533.44;4999081;28;20065;-80
2022/01/14 11:03:11;;;;;;;4.50;2.30;;;;;;;-0.40;100.00;95526.94;5016093;28;20053;-79
2022/01/14 11:05:37;;;;;;;5.07;2.72;;;;;;;-0.40;100.00;95519.28;5015619;28;20042;-79
2022/01/14 11:08:03;;;;;;;6.82;2.40;;;;;;;-0.42;100.00;95510.84;5015451;28;20030;-79
2022/01/14 11:10:30;;;;;;;;;;;;;;;-0.41;100.00;95504.88;5032457;28;20464;-80
2022/01/14 11:12:56;;;;;;;4.88;2.40;;;;;;;-0.43;100.00;95497.28;5031529;28;19913;-79
2022/01/14 11:15:23;;;;;;;5.00;2.50;;;;;;;-0.44;100.00;95482.06;5015171;28;20045;-81
2022/01/14 11:17:51;;;;;;;6.45;2.83;;;;;;;-0.41;100.00;95481.94;5016096;28;20112;-81
2022/01/14 11:20:30;;;;;;;7.32;3.10;;;;;;;-0.40;100.00;95473.47;5015569;28;20073;-82
2022/01/14 11:23:14;;;;;;;9.40;5.40;;;;;;;-0.41;100.00;95475.19;5015377;28;20042;-79
2022/01/14 11:26:03;;;;;;;16.20;7.47;;;;;;;-0.44;100.00;95476.97;5016214;28;20050;-79
2022/01/14 11:28:36;;;;;;;46.42;7.18;;;;;;;-0.51;100.00;95461.84;4999301;28;20409;-79
2022/01/14 11:31:31;;;;;;;109.25;8.60;;;;;;;-0.52;100.00;95465.28;4982330;28;20050;-80
2022/01/14 11:33:58;;;;;;;21.45;5.93;;;;;;;-0.54;100.00;95461.94;5015131;28;20034;-80
2022/01/14 11:36:24;;;;;;;15.18;5.65;;;;;;;-0.51;100.00;95456.75;4999095;28;20065;-80
2022/01/14 11:38:49;;;;;;;18.67;5.43;;;;;;;-0.56;100.00;95442.50;4998299;28;20053;-80
2022/01/14 11:41:20;;;;;;;10.07;4.90;;;;;;;-0.52;100.00;95439.00;5014389;28;20038;-80
2022/01/14 11:43:51;;;;;;;35.92;8.75;;;;;;;-0.49;100.00;95438.09;5030956;28;20038;-80
2022/01/14 11:46:32;;;;;;;20.38;8.07;;;;;;;-0.49;100.00;95433.81;5014486;28;20046;-80